sensor_id;sensor_type;location;lat;lon;timestamp;P1;durP1;ratioP1;P2;durP2;ratioP2
19343;SDS011;9808;52.402;16.678;2022-11-12T00:00:52;20.37;;;8.70;;
19343;SDS011;9808;52.402;16.678;2022-11-12T00:03:19;19.33;;;8.07;;
19343;SDS011;9808;52.402;16.678;2022-11-12T00:05:47;15.43;;;7.63;;
19343;SDS011;9808;52.402;16.678;2022-11-12T00:08:16;17.77;;;7.37;;
19343;SDS011;9808;52.402;16.678;2022-11-12T00:10:43;16.53;;;8.40;;
19343;SDS011;9808;52.402;16.678;2022-11-12T00:13:10;15.87;;;8.20;;
19343;SDS011;9808;52.402;16.678;2022-11-12T00:15:37;16.23;;;8.27;;
19343;SDS011;9808;52.402;16.678;2022-11-12T00:18:04;18.20;;;8.43;;
19343;SDS011;9808;52.402;16.678;2022-11-12T00:20:32;18.77;;;8.30;;
19343;SDS011;9808;52.402;16.678;2022-11-12T00:23:00;18.23;;;8.20;;
19343;SDS011;9808;52.402;16.678;2022-11-12T00:25:26;16.23;;;8.80;;
19343;SDS011;9808;52.402;16.678;2022-11-12T00:27:56;14.73;;;7.97;;
19343;SDS011;9808;52.402;16.678;2022-11-12T00:30:30;16.97;;;8.03;;
19343;SDS011;9808;52.402;16.678;2022-11-12T00:32:58;17.53;;;8.53;;
19343;SDS011;9808;52.402;16.678;2022-11-12T00:35:28;17.47;;;8.33;;
19343;SDS011;9808;52.402;16.678;2022-11-12T00:37:56;18.93;;;7.67;;
19343;SDS011;9808;52.402;16.678;2022-11-12T00:40:24;16.57;;;7.90;;
19343;SDS011;9808;52.402;16.678;2022-11-12T00:42:51;14.40;;;7.40;;
19343;SDS011;9808;52.402;16.678;2022-11-12T00:45:18;15.70;;;7.53;;
19343;SDS011;9808;52.402;16.678;2022-11-12T00:47:45;17.33;;;7.93;;
19343;SDS011;9808;52.402;16.678;2022-11-12T00:50:12;15.10;;;7.73;;
19343;SDS011;9808;52.402;16.678;2022-11-12T00:52:41;16.03;;;7.40;;
19343;SDS011;9808;52.402;16.678;2022-11-12T00:55:08;16.47;;;7.47;;
19343;SDS011;9808;52.402;16.678;2022-11-12T00:57:35;14.37;;;7.43;;
19343;SDS011;9808;52.402;16.678;2022-11-12T01:00:02;16.37;;;7.80;;
19343;SDS011;9808;52.402;16.678;2022-11-12T01:02:31;13.13;;;7.00;;
19343;SDS011;9808;52.402;16.678;2022-11-12T01:05:07;14.27;;;7.60;;
19343;SDS011;9808;52.402;16.678;2022-11-12T01:07:34;16.43;;;7.90;;
19343;SDS011;9808;52.402;16.678;2022-11-12T01:10:01;15.77;;;6.93;;
19343;SDS011;9808;52.402;16.678;2022-11-12T01:12:29;15.37;;;7.50;;
19343;SDS011;9808;52.402;16.678;2022-11-12T01:14:56;14.90;;;7.77;;
19343;SDS011;9808;52.402;16.678;2022-11-12T01:17:23;15.83;;;7.70;;
19343;SDS011;9808;52.402;16.678;2022-11-12T01:19:50;16.17;;;6.97;;
19343;SDS011;9808;52.402;16.678;2022-11-12T01:22:16;15.17;;;7.20;;
19343;SDS011;9808;52.402;16.678;2022-11-12T01:24:43;16.33;;;7.87;;
19343;SDS011;9808;52.402;16.678;2022-11-12T01:27:10;15.20;;;7.30;;
19343;SDS011;9808;52.402;16.678;2022-11-12T01:29:36;17.07;;;7.90;;
19343;SDS011;9808;52.402;16.678;2022-11-12T01:32:03;17.63;;;8.37;;
19343;SDS011;9808;52.402;16.678;2022-11-12T01:34:30;18.40;;;8.80;;
19343;SDS011;9808;52.402;16.678;2022-11-12T01:36:57;19.47;;;9.53;;
19343;SDS011;9808;52.402;16.678;2022-11-12T01:39:24;20.47;;;9.73;;
19343;SDS011;9808;52.402;16.678;2022-11-12T01:41:50;22.60;;;10.63;;
19343;SDS011;9808;52.402;16.678;2022-11-12T01:44:21;19.47;;;10.03;;
19343;SDS011;9808;52.402;16.678;2022-11-12T01:47:05;20.67;;;9.40;;
19343;SDS011;9808;52.402;16.678;2022-11-12T01:55:01;20.10;;;9.07;;
19343;SDS011;9808;52.402;16.678;2022-11-12T01:57:59;18.90;;;8.60;;
19343;SDS011;9808;52.402;16.678;2022-11-12T02:00:33;18.80;;;9.03;;
19343;SDS011;9808;52.402;16.678;2022-11-12T02:03:01;15.57;;;7.87;;
19343;SDS011;9808;52.402;16.678;2022-11-12T02:05:31;19.83;;;9.30;;
19343;SDS011;9808;52.402;16.678;2022-11-12T02:08:00;15.83;;;8.30;;
19343;SDS011;9808;52.402;16.678;2022-11-12T02:10:29;18.63;;;9.10;;
19343;SDS011;9808;52.402;16.678;2022-11-12T02:12:56;19.63;;;9.80;;
19343;SDS011;9808;52.402;16.678;2022-11-12T02:15:41;20.93;;;10.60;;
19343;SDS011;9808;52.402;16.678;2022-11-12T02:18:08;22.10;;;10.70;;
19343;SDS011;9808;52.402;16.678;2022-11-12T02:20:36;25.60;;;12.40;;
19343;SDS011;9808;52.402;16.678;2022-11-12T02:23:04;30.23;;;13.40;;
19343;SDS011;9808;52.402;16.678;2022-11-12T02:25:32;31.07;;;14.97;;
19343;SDS011;9808;52.402;16.678;2022-11-12T02:28:00;34.37;;;15.83;;
19343;SDS011;9808;52.402;16.678;2022-11-12T02:30:31;36.43;;;16.27;;
19343;SDS011;9808;52.402;16.678;2022-11-12T02:33:06;39.13;;;16.90;;
19343;SDS011;9808;52.402;16.678;2022-11-12T02:35:33;41.60;;;17.03;;
19343;SDS011;9808;52.402;16.678;2022-11-12T02:38:00;41.63;;;17.23;;
19343;SDS011;9808;52.402;16.678;2022-11-12T02:40:27;38.73;;;16.60;;
19343;SDS011;9808;52.402;16.678;2022-11-12T02:42:53;35.70;;;16.23;;
19343;SDS011;9808;52.402;16.678;2022-11-12T02:45:20;36.00;;;16.03;;
19343;SDS011;9808;52.402;16.678;2022-11-12T02:47:47;36.97;;;15.50;;
19343;SDS011;9808;52.402;16.678;2022-11-12T02:50:14;31.43;;;14.30;;
19343;SDS011;9808;52.402;16.678;2022-11-12T02:52:41;27.57;;;14.07;;
19343;SDS011;9808;52.402;16.678;2022-11-12T02:55:09;26.37;;;13.40;;
19343;SDS011;9808;52.402;16.678;2022-11-12T02:57:37;23.27;;;12.53;;
19343;SDS011;9808;52.402;16.678;2022-11-12T03:00:06;21.50;;;11.93;;
19343;SDS011;9808;52.402;16.678;2022-11-12T03:02:37;24.17;;;11.67;;
19343;SDS011;9808;52.402;16.678;2022-11-12T03:05:25;21.70;;;11.20;;
19343;SDS011;9808;52.402;16.678;2022-11-12T03:08:04;21.73;;;10.77;;
19343;SDS011;9808;52.402;16.678;2022-11-12T03:10:32;22.13;;;10.77;;
19343;SDS011;9808;52.402;16.678;2022-11-12T03:13:00;20.13;;;9.20;;
19343;SDS011;9808;52.402;16.678;2022-11-12T03:15:27;19.13;;;8.70;;
19343;SDS011;9808;52.402;16.678;2022-11-12T03:17:58;17.93;;;9.30;;
19343;SDS011;9808;52.402;16.678;2022-11-12T03:20:25;19.20;;;8.47;;
19343;SDS011;9808;52.402;16.678;2022-11-12T03:22:56;18.27;;;8.33;;
19343;SDS011;9808;52.402;16.678;2022-11-12T03:25:25;18.00;;;8.00;;
19343;SDS011;9808;52.402;16.678;2022-11-12T03:27:59;13.67;;;7.40;;
19343;SDS011;9808;52.402;16.678;2022-11-12T03:30:29;16.20;;;7.40;;
19343;SDS011;9808;52.402;16.678;2022-11-12T03:32:58;18.53;;;7.77;;
19343;SDS011;9808;52.402;16.678;2022-11-12T03:35:25;20.63;;;8.40;;
19343;SDS011;9808;52.402;16.678;2022-11-12T03:37:52;17.73;;;8.27;;
19343;SDS011;9808;52.402;16.678;2022-11-12T03:40:19;18.17;;;7.90;;
19343;SDS011;9808;52.402;16.678;2022-11-12T03:42:46;16.17;;;7.77;;
19343;SDS011;9808;52.402;16.678;2022-11-12T03:45:15;18.10;;;7.50;;
19343;SDS011;9808;52.402;16.678;2022-11-12T03:47:44;13.47;;;7.00;;
19343;SDS011;9808;52.402;16.678;2022-11-12T03:50:12;16.70;;;7.60;;
19343;SDS011;9808;52.402;16.678;2022-11-12T03:52:47;15.13;;;7.77;;
19343;SDS011;9808;52.402;16.678;2022-11-12T03:55:19;15.77;;;6.70;;
19343;SDS011;9808;52.402;16.678;2022-11-12T03:57:47;12.73;;;7.20;;
19343;SDS011;9808;52.402;16.678;2022-11-12T04:00:15;20.70;;;8.20;;
19343;SDS011;9808;52.402;16.678;2022-11-12T04:02:42;15.17;;;8.23;;
19343;SDS011;9808;52.402;16.678;2022-11-12T04:05:09;16.20;;;7.70;;
19343;SDS011;9808;52.402;16.678;2022-11-12T04:07:56;19.67;;;8.07;;
19343;SDS011;9808;52.402;16.678;2022-11-12T04:11:02;17.33;;;7.47;;
19343;SDS011;9808;52.402;16.678;2022-11-12T04:13:29;16.10;;;7.80;;
19343;SDS011;9808;52.402;16.678;2022-11-12T04:16:00;13.87;;;7.50;;
19343;SDS011;9808;52.402;16.678;2022-11-12T04:19:10;18.23;;;8.13;;
19343;SDS011;9808;52.402;16.678;2022-11-12T04:24:38;17.90;;;7.47;;
19343;SDS011;9808;52.402;16.678;2022-11-12T04:27:27;17.50;;;7.20;;
19343;SDS011;9808;52.402;16.678;2022-11-12T04:29:57;15.73;;;7.43;;
19343;SDS011;9808;52.402;16.678;2022-11-12T04:32:51;18.03;;;7.97;;
19343;SDS011;9808;52.402;16.678;2022-11-12T04:35:22;17.47;;;8.73;;
19343;SDS011;9808;52.402;16.678;2022-11-12T04:37:52;15.50;;;8.30;;
19343;SDS011;9808;52.402;16.678;2022-11-12T04:40:20;20.53;;;8.53;;
19343;SDS011;9808;52.402;16.678;2022-11-12T04:43:09;16.80;;;8.37;;
19343;SDS011;9808;52.402;16.678;2022-11-12T04:45:57;24.43;;;8.50;;
19343;SDS011;9808;52.402;16.678;2022-11-12T04:48:25;16.10;;;7.50;;
19343;SDS011;9808;52.402;16.678;2022-11-12T04:50:53;17.43;;;7.50;;
19343;SDS011;9808;52.402;16.678;2022-11-12T04:53:24;15.50;;;7.77;;
19343;SDS011;9808;52.402;16.678;2022-11-12T04:55:52;16.90;;;7.60;;
19343;SDS011;9808;52.402;16.678;2022-11-12T04:58:21;16.27;;;8.20;;
19343;SDS011;9808;52.402;16.678;2022-11-12T05:00:48;13.47;;;7.63;;
19343;SDS011;9808;52.402;16.678;2022-11-12T05:03:16;16.10;;;7.40;;
19343;SDS011;9808;52.402;16.678;2022-11-12T05:05:43;18.13;;;8.07;;
19343;SDS011;9808;52.402;16.678;2022-11-12T05:08:10;17.20;;;7.87;;
19343;SDS011;9808;52.402;16.678;2022-11-12T05:10:36;15.60;;;7.10;;
19343;SDS011;9808;52.402;16.678;2022-11-12T05:13:03;13.50;;;7.37;;
19343;SDS011;9808;52.402;16.678;2022-11-12T05:15:30;14.23;;;7.10;;
19343;SDS011;9808;52.402;16.678;2022-11-12T05:17:57;14.90;;;7.07;;
19343;SDS011;9808;52.402;16.678;2022-11-12T05:20:23;14.07;;;7.37;;
19343;SDS011;9808;52.402;16.678;2022-11-12T05:22:50;18.20;;;8.73;;
19343;SDS011;9808;52.402;16.678;2022-11-12T05:25:31;17.60;;;8.57;;
19343;SDS011;9808;52.402;16.678;2022-11-12T05:27:57;17.43;;;8.00;;
19343;SDS011;9808;52.402;16.678;2022-11-12T05:30:24;14.30;;;8.13;;
19343;SDS011;9808;52.402;16.678;2022-11-12T05:32:51;16.77;;;8.07;;
19343;SDS011;9808;52.402;16.678;2022-11-12T05:35:18;13.97;;;8.43;;
19343;SDS011;9808;52.402;16.678;2022-11-12T05:37:44;14.63;;;7.40;;
19343;SDS011;9808;52.402;16.678;2022-11-12T05:40:11;16.67;;;9.40;;
19343;SDS011;9808;52.402;16.678;2022-11-12T05:42:38;15.10;;;8.83;;
19343;SDS011;9808;52.402;16.678;2022-11-12T05:45:05;17.17;;;9.63;;
19343;SDS011;9808;52.402;16.678;2022-11-12T05:47:32;18.43;;;8.17;;
19343;SDS011;9808;52.402;16.678;2022-11-12T05:49:59;13.63;;;7.53;;
19343;SDS011;9808;52.402;16.678;2022-11-12T05:52:26;15.10;;;7.43;;
19343;SDS011;9808;52.402;16.678;2022-11-12T05:54:53;17.67;;;6.90;;
19343;SDS011;9808;52.402;16.678;2022-11-12T05:57:19;16.20;;;6.10;;
19343;SDS011;9808;52.402;16.678;2022-11-12T05:59:46;16.67;;;6.47;;
19343;SDS011;9808;52.402;16.678;2022-11-12T06:02:13;12.83;;;6.40;;
19343;SDS011;9808;52.402;16.678;2022-11-12T06:04:39;13.80;;;6.83;;
19343;SDS011;9808;52.402;16.678;2022-11-12T06:07:06;17.07;;;6.57;;
19343;SDS011;9808;52.402;16.678;2022-11-12T06:09:33;11.47;;;6.57;;
19343;SDS011;9808;52.402;16.678;2022-11-12T06:12:00;15.00;;;6.53;;
19343;SDS011;9808;52.402;16.678;2022-11-12T06:14:31;13.83;;;6.37;;
19343;SDS011;9808;52.402;16.678;2022-11-12T06:16:58;12.43;;;7.03;;
19343;SDS011;9808;52.402;16.678;2022-11-12T06:19:24;17.43;;;6.90;;
19343;SDS011;9808;52.402;16.678;2022-11-12T06:21:51;16.57;;;6.63;;
19343;SDS011;9808;52.402;16.678;2022-11-12T06:24:18;13.83;;;7.20;;
19343;SDS011;9808;52.402;16.678;2022-11-12T06:26:45;15.77;;;6.90;;
19343;SDS011;9808;52.402;16.678;2022-11-12T06:29:11;15.13;;;6.60;;
19343;SDS011;9808;52.402;16.678;2022-11-12T06:31:38;17.57;;;6.80;;
19343;SDS011;9808;52.402;16.678;2022-11-12T06:34:05;14.97;;;7.30;;
19343;SDS011;9808;52.402;16.678;2022-11-12T06:36:32;11.50;;;6.17;;
19343;SDS011;9808;52.402;16.678;2022-11-12T06:39:00;17.43;;;6.63;;
19343;SDS011;9808;52.402;16.678;2022-11-12T06:41:26;13.53;;;6.70;;
19343;SDS011;9808;52.402;16.678;2022-11-12T06:43:53;13.80;;;6.10;;
19343;SDS011;9808;52.402;16.678;2022-11-12T06:46:20;13.57;;;7.17;;
19343;SDS011;9808;52.402;16.678;2022-11-12T06:48:47;13.63;;;6.83;;
19343;SDS011;9808;52.402;16.678;2022-11-12T06:51:17;19.57;;;7.50;;
19343;SDS011;9808;52.402;16.678;2022-11-12T06:53:45;14.60;;;7.23;;
19343;SDS011;9808;52.402;16.678;2022-11-12T06:56:12;13.90;;;7.70;;
19343;SDS011;9808;52.402;16.678;2022-11-12T06:58:40;14.33;;;6.47;;
19343;SDS011;9808;52.402;16.678;2022-11-12T07:01:11;16.50;;;6.40;;
19343;SDS011;9808;52.402;16.678;2022-11-12T07:03:40;11.97;;;5.40;;
19343;SDS011;9808;52.402;16.678;2022-11-12T07:06:13;13.27;;;6.03;;
19343;SDS011;9808;52.402;16.678;2022-11-12T07:08:43;13.20;;;6.30;;
19343;SDS011;9808;52.402;16.678;2022-11-12T07:11:11;11.67;;;5.70;;
19343;SDS011;9808;52.402;16.678;2022-11-12T07:13:38;14.80;;;5.60;;
19343;SDS011;9808;52.402;16.678;2022-11-12T07:16:05;12.93;;;5.37;;
19343;SDS011;9808;52.402;16.678;2022-11-12T07:18:33;13.70;;;6.00;;
19343;SDS011;9808;52.402;16.678;2022-11-12T07:21:01;11.93;;;6.10;;
19343;SDS011;9808;52.402;16.678;2022-11-12T07:23:34;10.03;;;5.77;;
19343;SDS011;9808;52.402;16.678;2022-11-12T07:26:03;15.80;;;6.37;;
19343;SDS011;9808;52.402;16.678;2022-11-12T07:28:47;11.90;;;6.30;;
19343;SDS011;9808;52.402;16.678;2022-11-12T07:31:16;11.77;;;6.17;;
19343;SDS011;9808;52.402;16.678;2022-11-12T07:33:44;12.80;;;5.87;;
19343;SDS011;9808;52.402;16.678;2022-11-12T07:36:14;14.67;;;6.70;;
19343;SDS011;9808;52.402;16.678;2022-11-12T07:38:43;16.13;;;7.27;;
19343;SDS011;9808;52.402;16.678;2022-11-12T07:41:11;16.33;;;7.57;;
19343;SDS011;9808;52.402;16.678;2022-11-12T07:43:40;17.03;;;7.33;;
19343;SDS011;9808;52.402;16.678;2022-11-12T07:46:10;12.50;;;7.17;;
19343;SDS011;9808;52.402;16.678;2022-11-12T07:48:39;16.90;;;7.23;;
19343;SDS011;9808;52.402;16.678;2022-11-12T07:51:11;15.27;;;6.90;;
19343;SDS011;9808;52.402;16.678;2022-11-12T07:53:40;12.20;;;6.97;;
19343;SDS011;9808;52.402;16.678;2022-11-12T07:56:12;12.47;;;6.07;;
19343;SDS011;9808;52.402;16.678;2022-11-12T07:58:41;12.70;;;6.87;;
19343;SDS011;9808;52.402;16.678;2022-11-12T08:04:08;13.87;;;6.80;;
19343;SDS011;9808;52.402;16.678;2022-11-12T08:06:37;14.53;;;7.30;;
19343;SDS011;9808;52.402;16.678;2022-11-12T08:09:04;33.10;;;13.30;;
19343;SDS011;9808;52.402;16.678;2022-11-12T08:11:32;23.00;;;11.17;;
19343;SDS011;9808;52.402;16.678;2022-11-12T08:13:59;13.00;;;7.60;;
19343;SDS011;9808;52.402;16.678;2022-11-12T08:16:27;20.47;;;8.10;;
19343;SDS011;9808;52.402;16.678;2022-11-12T08:18:55;19.77;;;8.87;;
19343;SDS011;9808;52.402;16.678;2022-11-12T08:21:21;24.93;;;11.17;;
19343;SDS011;9808;52.402;16.678;2022-11-12T08:23:48;26.23;;;13.23;;
19343;SDS011;9808;52.402;16.678;2022-11-12T08:26:16;38.30;;;19.77;;
19343;SDS011;9808;52.402;16.678;2022-11-12T08:28:44;43.63;;;20.97;;
19343;SDS011;9808;52.402;16.678;2022-11-12T08:31:13;25.07;;;12.70;;
19343;SDS011;9808;52.402;16.678;2022-11-12T08:33:42;22.53;;;9.27;;
19343;SDS011;9808;52.402;16.678;2022-11-12T08:36:10;22.70;;;10.63;;
19343;SDS011;9808;52.402;16.678;2022-11-12T08:38:40;27.23;;;12.03;;
19343;SDS011;9808;52.402;16.678;2022-11-12T08:41:08;25.57;;;12.37;;
19343;SDS011;9808;52.402;16.678;2022-11-12T08:43:36;33.77;;;16.50;;
19343;SDS011;9808;52.402;16.678;2022-11-12T08:46:04;26.20;;;13.27;;
19343;SDS011;9808;52.402;16.678;2022-11-12T08:48:31;26.97;;;12.33;;
19343;SDS011;9808;52.402;16.678;2022-11-12T08:51:00;45.43;;;22.07;;
19343;SDS011;9808;52.402;16.678;2022-11-12T08:53:28;36.67;;;18.30;;
19343;SDS011;9808;52.402;16.678;2022-11-12T08:55:55;78.57;;;36.10;;
19343;SDS011;9808;52.402;16.678;2022-11-12T08:58:23;56.73;;;27.67;;
19343;SDS011;9808;52.402;16.678;2022-11-12T09:00:51;44.03;;;22.97;;
19343;SDS011;9808;52.402;16.678;2022-11-12T09:03:20;29.83;;;16.63;;
19343;SDS011;9808;52.402;16.678;2022-11-12T09:05:49;47.07;;;22.30;;
19343;SDS011;9808;52.402;16.678;2022-11-12T09:08:18;31.17;;;16.83;;
19343;SDS011;9808;52.402;16.678;2022-11-12T09:10:47;36.97;;;17.47;;
19343;SDS011;9808;52.402;16.678;2022-11-12T09:13:15;29.00;;;13.93;;
19343;SDS011;9808;52.402;16.678;2022-11-12T09:15:45;23.77;;;12.70;;
19343;SDS011;9808;52.402;16.678;2022-11-12T09:18:16;30.50;;;16.03;;
19343;SDS011;9808;52.402;16.678;2022-11-12T09:20:44;29.17;;;14.13;;
19343;SDS011;9808;52.402;16.678;2022-11-12T09:23:12;32.80;;;16.57;;
19343;SDS011;9808;52.402;16.678;2022-11-12T09:25:40;24.20;;;12.23;;
19343;SDS011;9808;52.402;16.678;2022-11-12T09:28:12;19.77;;;10.90;;
19343;SDS011;9808;52.402;16.678;2022-11-12T09:30:41;20.20;;;12.10;;
19343;SDS011;9808;52.402;16.678;2022-11-12T09:33:12;20.57;;;10.20;;
19343;SDS011;9808;52.402;16.678;2022-11-12T09:35:39;24.10;;;10.60;;
19343;SDS011;9808;52.402;16.678;2022-11-12T09:38:06;28.87;;;15.23;;
19343;SDS011;9808;52.402;16.678;2022-11-12T09:43:20;29.10;;;14.80;;
19343;SDS011;9808;52.402;16.678;2022-11-12T09:45:51;35.03;;;18.00;;
19343;SDS011;9808;52.402;16.678;2022-11-12T09:48:41;33.90;;;18.07;;
19343;SDS011;9808;52.402;16.678;2022-11-12T09:51:15;24.73;;;13.70;;
19343;SDS011;9808;52.402;16.678;2022-11-12T09:53:58;20.63;;;12.27;;
19343;SDS011;9808;52.402;16.678;2022-11-12T09:56:29;25.43;;;14.13;;
19343;SDS011;9808;52.402;16.678;2022-11-12T09:58:56;27.97;;;13.73;;
19343;SDS011;9808;52.402;16.678;2022-11-12T10:01:35;23.07;;;13.53;;
19343;SDS011;9808;52.402;16.678;2022-11-12T10:07:23;37.27;;;18.60;;
19343;SDS011;9808;52.402;16.678;2022-11-12T10:09:59;30.87;;;14.47;;
19343;SDS011;9808;52.402;16.678;2022-11-12T10:18:19;23.93;;;14.10;;
19343;SDS011;9808;52.402;16.678;2022-11-12T10:23:51;25.37;;;13.77;;
19343;SDS011;9808;52.402;16.678;2022-11-12T10:26:19;26.10;;;13.30;;
19343;SDS011;9808;52.402;16.678;2022-11-12T10:31:31;28.67;;;16.10;;
19343;SDS011;9808;52.402;16.678;2022-11-12T10:36:59;30.90;;;16.70;;
19343;SDS011;9808;52.402;16.678;2022-11-12T10:42:01;33.60;;;18.03;;
19343;SDS011;9808;52.402;16.678;2022-11-12T10:44:30;41.03;;;20.33;;
19343;SDS011;9808;52.402;16.678;2022-11-12T10:52:30;26.83;;;14.17;;
19343;SDS011;9808;52.402;16.678;2022-11-12T10:55:01;28.30;;;14.47;;
19343;SDS011;9808;52.402;16.678;2022-11-12T11:00:34;26.20;;;14.93;;
19343;SDS011;9808;52.402;16.678;2022-11-12T11:04:14;22.97;;;13.27;;
19343;SDS011;9808;52.402;16.678;2022-11-12T11:08:44;36.33;;;19.80;;
19343;SDS011;9808;52.402;16.678;2022-11-12T11:13:42;26.10;;;15.30;;
19343;SDS011;9808;52.402;16.678;2022-11-12T11:18:46;28.30;;;15.07;;
19343;SDS011;9808;52.402;16.678;2022-11-12T11:26:55;26.83;;;14.30;;
19343;SDS011;9808;52.402;16.678;2022-11-12T11:29:34;28.00;;;14.07;;
19343;SDS011;9808;52.402;16.678;2022-11-12T11:39:59;23.90;;;13.60;;
19343;SDS011;9808;52.402;16.678;2022-11-12T11:45:47;25.27;;;14.63;;
19343;SDS011;9808;52.402;16.678;2022-11-12T11:57:10;27.83;;;15.23;;
19343;SDS011;9808;52.402;16.678;2022-11-12T12:02:23;24.83;;;13.97;;
19343;SDS011;9808;52.402;16.678;2022-11-12T12:07:59;24.20;;;13.53;;
19343;SDS011;9808;52.402;16.678;2022-11-12T12:10:48;25.33;;;12.63;;
19343;SDS011;9808;52.402;16.678;2022-11-12T12:22:17;24.30;;;14.00;;
19343;SDS011;9808;52.402;16.678;2022-11-12T12:24:52;24.87;;;13.20;;
19343;SDS011;9808;52.402;16.678;2022-11-12T12:27:25;27.97;;;13.77;;
19343;SDS011;9808;52.402;16.678;2022-11-12T12:29:57;30.33;;;15.63;;
19343;SDS011;9808;52.402;16.678;2022-11-12T12:32:35;31.03;;;15.10;;
19343;SDS011;9808;52.402;16.678;2022-11-12T12:35:12;25.47;;;13.83;;
19343;SDS011;9808;52.402;16.678;2022-11-12T12:38:10;24.00;;;13.17;;
19343;SDS011;9808;52.402;16.678;2022-11-12T12:40:45;26.87;;;14.73;;
19343;SDS011;9808;52.402;16.678;2022-11-12T12:46:00;26.27;;;14.90;;
19343;SDS011;9808;52.402;16.678;2022-11-12T12:48:29;28.40;;;15.50;;
19343;SDS011;9808;52.402;16.678;2022-11-12T12:51:01;29.40;;;16.27;;
19343;SDS011;9808;52.402;16.678;2022-11-12T12:56:03;35.87;;;17.70;;
19343;SDS011;9808;52.402;16.678;2022-11-12T12:58:32;30.37;;;17.43;;
19343;SDS011;9808;52.402;16.678;2022-11-12T13:01:11;33.77;;;16.97;;
19343;SDS011;9808;52.402;16.678;2022-11-12T13:03:53;32.60;;;18.47;;
19343;SDS011;9808;52.402;16.678;2022-11-12T13:06:22;33.43;;;16.77;;
19343;SDS011;9808;52.402;16.678;2022-11-12T13:12:07;31.43;;;16.97;;
19343;SDS011;9808;52.402;16.678;2022-11-12T13:17:01;34.43;;;17.73;;
19343;SDS011;9808;52.402;16.678;2022-11-12T13:43:37;30.93;;;16.23;;
19343;SDS011;9808;52.402;16.678;2022-11-12T13:48:40;28.23;;;16.37;;
19343;SDS011;9808;52.402;16.678;2022-11-12T13:51:52;33.80;;;16.77;;
19343;SDS011;9808;52.402;16.678;2022-11-12T13:54:00;30.67;;;15.63;;
19343;SDS011;9808;52.402;16.678;2022-11-12T13:59:14;23.60;;;13.17;;
19343;SDS011;9808;52.402;16.678;2022-11-12T14:01:43;23.27;;;12.57;;
19343;SDS011;9808;52.402;16.678;2022-11-12T14:04:12;30.10;;;13.97;;
19343;SDS011;9808;52.402;16.678;2022-11-12T14:06:45;33.13;;;15.00;;
19343;SDS011;9808;52.402;16.678;2022-11-12T14:09:24;31.17;;;16.07;;
19343;SDS011;9808;52.402;16.678;2022-11-12T14:23:14;24.43;;;12.47;;
19343;SDS011;9808;52.402;16.678;2022-11-12T14:25:51;24.27;;;11.80;;
19343;SDS011;9808;52.402;16.678;2022-11-12T14:28:27;19.53;;;10.60;;
19343;SDS011;9808;52.402;16.678;2022-11-12T14:31:01;16.30;;;9.40;;
19343;SDS011;9808;52.402;16.678;2022-11-12T14:33:30;18.67;;;9.57;;
19343;SDS011;9808;52.402;16.678;2022-11-12T14:36:01;17.97;;;10.03;;
19343;SDS011;9808;52.402;16.678;2022-11-12T14:38:31;17.53;;;10.13;;
19343;SDS011;9808;52.402;16.678;2022-11-12T14:41:21;25.63;;;10.73;;
19343;SDS011;9808;52.402;16.678;2022-11-12T14:43:53;21.17;;;11.80;;
19343;SDS011;9808;52.402;16.678;2022-11-12T14:46:47;19.40;;;11.43;;
19343;SDS011;9808;52.402;16.678;2022-11-12T14:51:59;29.00;;;11.63;;
19343;SDS011;9808;52.402;16.678;2022-11-12T14:54:52;20.90;;;11.60;;
19343;SDS011;9808;52.402;16.678;2022-11-12T14:57:31;22.80;;;11.77;;
19343;SDS011;9808;52.402;16.678;2022-11-12T14:59:58;25.20;;;12.17;;
19343;SDS011;9808;52.402;16.678;2022-11-12T15:02:26;32.30;;;13.77;;
19343;SDS011;9808;52.402;16.678;2022-11-12T15:05:19;23.83;;;11.90;;
19343;SDS011;9808;52.402;16.678;2022-11-12T15:10:31;25.50;;;12.57;;
19343;SDS011;9808;52.402;16.678;2022-11-12T15:13:14;30.40;;;12.30;;
19343;SDS011;9808;52.402;16.678;2022-11-12T15:15:51;24.57;;;11.73;;
19343;SDS011;9808;52.402;16.678;2022-11-12T15:18:28;28.50;;;13.43;;
19343;SDS011;9808;52.402;16.678;2022-11-12T15:23:49;39.43;;;22.27;;
19343;SDS011;9808;52.402;16.678;2022-11-12T15:26:36;30.30;;;18.00;;
19343;SDS011;9808;52.402;16.678;2022-11-12T15:31:52;32.47;;;16.10;;
19343;SDS011;9808;52.402;16.678;2022-11-12T15:37:19;29.87;;;15.87;;
19343;SDS011;9808;52.402;16.678;2022-11-12T15:39:52;29.87;;;15.70;;
19343;SDS011;9808;52.402;16.678;2022-11-12T15:42:33;31.03;;;14.53;;
19343;SDS011;9808;52.402;16.678;2022-11-12T15:45:37;26.50;;;15.80;;
19343;SDS011;9808;52.402;16.678;2022-11-12T15:47:57;30.77;;;16.77;;
19343;SDS011;9808;52.402;16.678;2022-11-12T15:50:23;30.23;;;15.60;;
19343;SDS011;9808;52.402;16.678;2022-11-12T15:52:50;24.67;;;14.53;;
19343;SDS011;9808;52.402;16.678;2022-11-12T15:55:17;26.40;;;14.97;;
19343;SDS011;9808;52.402;16.678;2022-11-12T15:57:45;32.60;;;17.83;;
19343;SDS011;9808;52.402;16.678;2022-11-12T16:00:21;29.17;;;17.13;;
19343;SDS011;9808;52.402;16.678;2022-11-12T16:05:46;26.83;;;15.87;;
19343;SDS011;9808;52.402;16.678;2022-11-12T16:08:13;30.17;;;15.73;;
19343;SDS011;9808;52.402;16.678;2022-11-12T16:10:41;28.13;;;15.53;;
19343;SDS011;9808;52.402;16.678;2022-11-12T16:13:24;27.37;;;16.00;;
19343;SDS011;9808;52.402;16.678;2022-11-12T16:15:54;32.27;;;17.47;;
19343;SDS011;9808;52.402;16.678;2022-11-12T16:18:20;26.63;;;15.23;;
19343;SDS011;9808;52.402;16.678;2022-11-12T16:20:48;32.47;;;15.13;;
19343;SDS011;9808;52.402;16.678;2022-11-12T16:23:15;27.73;;;14.50;;
19343;SDS011;9808;52.402;16.678;2022-11-12T16:25:42;27.17;;;14.50;;
19343;SDS011;9808;52.402;16.678;2022-11-12T16:28:13;28.10;;;14.83;;
19343;SDS011;9808;52.402;16.678;2022-11-12T16:30:42;31.20;;;16.60;;
19343;SDS011;9808;52.402;16.678;2022-11-12T16:33:10;36.80;;;16.40;;
19343;SDS011;9808;52.402;16.678;2022-11-12T16:35:38;41.30;;;21.07;;
19343;SDS011;9808;52.402;16.678;2022-11-12T16:38:12;38.43;;;20.93;;
19343;SDS011;9808;52.402;16.678;2022-11-12T16:40:40;41.77;;;21.73;;
19343;SDS011;9808;52.402;16.678;2022-11-12T16:43:08;44.27;;;22.07;;
19343;SDS011;9808;52.402;16.678;2022-11-12T16:45:37;39.47;;;20.87;;
19343;SDS011;9808;52.402;16.678;2022-11-12T16:48:24;40.77;;;23.37;;
19343;SDS011;9808;52.402;16.678;2022-11-12T16:50:51;37.90;;;20.77;;
19343;SDS011;9808;52.402;16.678;2022-11-12T16:53:17;40.67;;;22.27;;
19343;SDS011;9808;52.402;16.678;2022-11-12T16:55:44;43.60;;;23.37;;
19343;SDS011;9808;52.402;16.678;2022-11-12T16:58:14;48.47;;;25.70;;
19343;SDS011;9808;52.402;16.678;2022-11-12T17:00:41;54.40;;;30.50;;
19343;SDS011;9808;52.402;16.678;2022-11-12T17:03:11;62.77;;;34.63;;
19343;SDS011;9808;52.402;16.678;2022-11-12T17:05:38;74.60;;;39.87;;
19343;SDS011;9808;52.402;16.678;2022-11-12T17:08:05;86.50;;;50.00;;
19343;SDS011;9808;52.402;16.678;2022-11-12T17:10:33;87.67;;;51.83;;
19343;SDS011;9808;52.402;16.678;2022-11-12T17:13:00;78.70;;;47.90;;
19343;SDS011;9808;52.402;16.678;2022-11-12T17:15:27;80.63;;;46.00;;
19343;SDS011;9808;52.402;16.678;2022-11-12T17:17:54;67.30;;;40.17;;
19343;SDS011;9808;52.402;16.678;2022-11-12T17:20:21;65.20;;;39.13;;
19343;SDS011;9808;52.402;16.678;2022-11-12T17:22:48;62.00;;;36.73;;
19343;SDS011;9808;52.402;16.678;2022-11-12T17:25:14;69.10;;;39.03;;
19343;SDS011;9808;52.402;16.678;2022-11-12T17:27:41;83.20;;;46.47;;